createdAt,value
2019-03-05T00:01:23.288Z,6.70
2019-03-05T00:03:53.566Z,6.65
2019-03-05T00:06:25.509Z,7.92
2019-03-05T00:08:54.798Z,7.85
2019-03-05T00:11:24.027Z,7.65
2019-03-05T00:13:54.182Z,8.85
2019-03-05T00:16:24.799Z,8.63
2019-03-05T00:18:57.432Z,8.15
2019-03-05T00:21:25.467Z,9.25
2019-03-05T00:23:58.787Z,9.33
2019-03-05T00:26:31.200Z,8.25
2019-03-05T00:29:05.590Z,7.83
2019-03-05T00:31:37.414Z,8.40
2019-03-05T00:34:14.552Z,8.55
2019-03-05T00:36:50.889Z,7.87
2019-03-05T00:39:21.433Z,7.08
2019-03-05T00:41:56.477Z,6.90
2019-03-05T00:44:30.666Z,6.90
2019-03-05T00:47:20.779Z,6.85
2019-03-05T00:50:10.650Z,6.60
2019-03-05T00:53:01.218Z,7.60
2019-03-05T00:55:43.630Z,8.23
2019-03-05T00:58:30.291Z,6.33
2019-03-05T01:01:17.426Z,6.80
2019-03-05T01:04:09.358Z,7.22
2019-03-05T01:06:37.932Z,6.30
2019-03-05T01:09:13.057Z,6.37
2019-03-05T01:11:41.071Z,5.35
2019-03-05T01:14:18.044Z,5.40
2019-03-05T01:16:46.845Z,5.60
2019-03-05T01:19:16.002Z,6.35
2019-03-05T01:21:44.229Z,5.90
2019-03-05T01:24:14.982Z,5.72
2019-03-05T01:26:42.964Z,5.80
2019-03-05T01:29:14.896Z,5.95
2019-03-05T01:32:10.390Z,5.45
2019-03-05T01:35:02.092Z,5.33
2019-03-05T01:37:33.085Z,4.87
2019-03-05T01:40:20.418Z,4.97
2019-03-05T01:42:50.124Z,5.08
2019-03-05T01:45:19.054Z,5.50
2019-03-05T01:47:46.972Z,5.00
2019-03-05T01:50:16.969Z,5.00
2019-03-05T01:52:44.850Z,4.85
2019-03-05T01:55:13.969Z,5.30
2019-03-05T01:57:43.201Z,5.35
2019-03-05T02:00:12.683Z,5.28
2019-03-05T02:02:47.372Z,5.67
2019-03-05T02:05:19.514Z,4.05
2019-03-05T02:07:49.486Z,5.25
2019-03-05T02:10:21.546Z,5.08
2019-03-05T02:12:54.735Z,5.15
2019-03-05T02:15:23.120Z,4.97
2019-03-05T02:17:51.393Z,4.70
2019-03-05T02:20:20.784Z,4.40
2019-03-05T02:22:50.817Z,4.80
2019-03-05T02:25:40.683Z,4.97
2019-03-05T02:28:19.488Z,4.45
2019-03-05T02:31:09.228Z,4.95
2019-03-05T02:34:00.485Z,5.45
2019-03-05T02:36:53.698Z,6.05
2019-03-05T02:39:53.979Z,5.00
2019-03-05T02:42:41.526Z,4.85
2019-03-05T02:45:31.586Z,3.95
2019-03-05T02:48:16.961Z,4.33
2019-03-05T02:51:13.475Z,5.30
2019-03-05T02:54:02.230Z,5.90
2019-03-05T02:56:41.592Z,4.33
2019-03-05T02:59:11.023Z,4.10
2019-03-05T03:02:13.092Z,4.25
2019-03-05T03:04:43.805Z,3.62
2019-03-05T03:07:11.769Z,4.50
2019-03-05T03:09:59.256Z,4.62
2019-03-05T03:12:28.417Z,4.95
2019-03-05T03:14:58.386Z,4.10
2019-03-05T03:17:29.717Z,5.05
2019-03-05T03:19:57.855Z,4.35
2019-03-05T03:22:26.304Z,4.05
2019-03-05T03:24:56.266Z,5.10
2019-03-05T03:27:24.365Z,3.67
2019-03-05T03:29:58.643Z,1.75
2019-03-05T03:32:28.601Z,1.80
2019-03-05T03:34:59.134Z,1.25
2019-03-05T03:37:27.087Z,1.27
2019-03-05T03:39:57.313Z,2.02
2019-03-05T03:42:28.279Z,2.05
2019-03-05T03:44:58.745Z,2.00
2019-03-05T03:47:30.775Z,1.75
2019-03-05T03:50:01.263Z,1.50
2019-03-05T03:52:33.053Z,1.77
2019-03-05T03:55:01.901Z,1.60
2019-03-05T03:57:34.689Z,1.40
2019-03-05T04:00:02.840Z,1.50
2019-03-05T04:02:31.038Z,1.60
2019-03-05T04:05:01.382Z,1.80
2019-03-05T04:07:31.425Z,1.90
2019-03-05T04:10:00.720Z,2.62
2019-03-05T04:12:29.142Z,3.20
2019-03-05T04:14:57.522Z,3.05
2019-03-05T04:17:28.449Z,3.30
2019-03-05T04:19:57.406Z,3.67
2019-03-05T04:22:26.956Z,3.83
2019-03-05T04:24:56.990Z,3.90
2019-03-05T04:27:28.744Z,6.22
2019-03-05T04:30:03.629Z,5.08
2019-03-05T04:32:35.639Z,4.40
2019-03-05T04:35:10.392Z,4.53
2019-03-05T04:37:39.716Z,4.78
2019-03-05T04:40:11.065Z,5.20
2019-03-05T04:42:39.147Z,5.20
2019-03-05T04:45:27.895Z,5.50
2019-03-05T04:47:55.850Z,5.37
2019-03-05T04:50:31.406Z,5.20
2019-03-05T04:52:59.401Z,5.78
2019-03-05T04:55:30.334Z,5.45
2019-03-05T04:58:01.228Z,5.20
2019-03-05T05:00:30.515Z,5.35
2019-03-05T05:02:59.269Z,6.55
2019-03-05T05:05:27.237Z,5.58
2019-03-05T05:07:58.976Z,5.75
2019-03-05T05:10:29.150Z,4.90
2019-03-05T05:12:58.215Z,4.60
2019-03-05T05:15:27.573Z,5.78
2019-03-05T05:17:57.797Z,4.35
2019-03-05T05:20:27.748Z,4.50
2019-03-05T05:22:55.784Z,5.15
2019-03-05T05:25:23.764Z,4.60
2019-03-05T05:27:52.640Z,5.53
2019-03-05T05:30:33.051Z,4.90
2019-03-05T05:33:00.946Z,5.30
2019-03-05T05:35:28.981Z,6.10
2019-03-05T05:37:58.331Z,5.80
2019-03-05T05:40:30.188Z,5.42
2019-03-05T05:43:00.399Z,5.42
2019-03-05T05:45:29.756Z,6.47
2019-03-05T05:47:57.695Z,6.12
2019-03-05T05:50:26.909Z,5.70
2019-03-05T05:52:54.981Z,6.22
2019-03-05T05:55:22.932Z,5.70
2019-03-05T05:57:50.880Z,5.78
2019-03-05T06:00:21.954Z,6.00
2019-03-05T06:02:51.506Z,5.65
2019-03-05T06:05:19.422Z,5.78
2019-03-05T06:07:47.387Z,5.40
2019-03-05T06:10:15.238Z,6.25
2019-03-05T06:12:43.118Z,4.45
2019-03-05T06:15:11.002Z,7.40
2019-03-05T06:17:38.862Z,4.62
2019-03-05T06:20:07.345Z,4.60
2019-03-05T18:56:27.750Z,4.75
2019-03-05T18:58:58.332Z,5.47
2019-03-05T19:01:26.492Z,4.03
2019-03-05T19:03:54.406Z,4.70
2019-03-05T19:06:22.691Z,4.90
2019-03-05T19:08:50.638Z,5.30
2019-03-05T19:11:18.534Z,4.25
2019-03-05T19:13:46.481Z,4.75
2019-03-05T19:16:14.496Z,4.40
2019-03-05T19:18:42.354Z,4.90
2019-03-05T19:21:10.427Z,4.72
2019-03-05T19:23:38.588Z,4.35
2019-03-05T19:26:07.292Z,4.67
2019-03-05T19:28:35.190Z,4.95
2019-03-05T19:31:05.019Z,4.37
2019-03-05T19:33:32.998Z,4.12
2019-03-05T19:36:02.578Z,4.78
2019-03-05T19:38:30.479Z,4.22
2019-03-05T19:40:58.366Z,4.10
2019-03-05T19:43:26.415Z,4.60
2019-03-05T19:45:54.319Z,3.90
2019-03-05T19:48:22.263Z,3.55
2019-03-05T19:50:50.340Z,4.25
2019-03-05T19:53:18.358Z,4.42
2019-03-05T19:55:46.356Z,4.10
2019-03-05T19:58:14.295Z,3.80
2019-03-05T20:03:41.509Z,4.42
2019-03-05T20:06:09.560Z,4.05
2019-03-05T20:08:40.267Z,3.77
2019-03-05T20:11:07.547Z,3.77
2019-03-05T20:16:14.867Z,3.12
2019-03-05T20:18:42.870Z,3.37
2019-03-05T20:21:10.880Z,3.33
2019-03-05T20:23:57.807Z,3.75
2019-03-05T20:26:25.836Z,3.90
2019-03-05T20:29:26.826Z,4.20
2019-03-05T20:34:18.904Z,3.30
2019-03-05T20:36:46.963Z,4.00
2019-03-05T20:39:17.081Z,4.17
2019-03-05T20:41:44.992Z,3.22
2019-03-05T20:44:12.937Z,3.47
2019-03-05T20:46:40.914Z,3.20
2019-03-05T20:49:08.857Z,3.62
2019-03-05T20:51:37.049Z,3.40
2019-03-05T20:54:05.182Z,3.75
2019-03-05T20:56:33.181Z,3.58
2019-03-05T20:59:01.180Z,3.05
2019-03-05T21:01:29.288Z,3.45
2019-03-05T21:04:16.318Z,2.92
2019-03-05T21:06:44.431Z,2.90
2019-03-05T21:09:31.938Z,3.22
2019-03-05T21:12:00.061Z,2.98
2019-03-05T21:14:28.123Z,2.90
2019-03-05T21:16:56.073Z,3.08
2019-03-05T21:19:24.060Z,2.50
2019-03-05T21:21:52.002Z,2.98
2019-03-05T21:24:19.956Z,2.87
2019-03-05T21:26:48.029Z,2.80
2019-03-05T21:29:18.205Z,3.25
2019-03-05T21:31:46.283Z,3.58
2019-03-05T21:34:14.263Z,3.83
2019-03-05T21:36:42.665Z,3.47
2019-03-05T21:39:12.647Z,3.22
2019-03-05T21:41:40.559Z,3.42
2019-03-05T21:44:10.394Z,3.70
2019-03-05T21:46:38.906Z,4.03
2019-03-05T21:49:08.618Z,4.03
2019-03-05T21:51:36.623Z,3.10
2019-03-05T21:54:04.595Z,3.55
2019-03-05T21:56:32.573Z,3.30
2019-03-05T21:59:00.502Z,3.90
2019-03-05T22:01:28.395Z,3.42
2019-03-05T22:03:56.318Z,3.17
2019-03-05T22:06:24.269Z,3.87
2019-03-05T22:08:52.252Z,3.47
2019-03-05T22:11:20.213Z,3.20
2019-03-05T22:13:48.079Z,3.75
2019-03-05T22:16:15.963Z,3.30
2019-03-05T22:18:43.834Z,4.08
2019-03-05T22:21:12.066Z,2.80
2019-03-05T22:23:39.897Z,3.15
2019-03-05T22:26:07.780Z,2.52
2019-03-05T22:28:37.796Z,2.60
2019-03-05T22:31:05.865Z,3.17
2019-03-05T22:33:33.856Z,3.30
2019-03-05T22:36:01.956Z,3.00
2019-03-05T22:38:29.790Z,3.80
2019-03-05T22:40:57.714Z,2.77
2019-03-05T22:43:46.632Z,3.12
2019-03-05T22:48:54.558Z,2.98
2019-03-05T22:51:22.517Z,3.02
2019-03-05T22:53:50.427Z,3.80
2019-03-05T22:56:20.615Z,3.22
2019-03-05T22:58:48.496Z,3.17
2019-03-05T23:01:39.958Z,3.35
2019-03-05T23:04:08.371Z,3.33
2019-03-05T23:06:36.361Z,3.05
2019-03-05T23:14:53.378Z,3.85
2019-03-05T23:19:56.386Z,3.17
2019-03-05T23:22:44.705Z,3.10
2019-03-05T23:25:15.249Z,3.27
2019-03-05T23:27:43.186Z,3.42
2019-03-05T23:30:11.135Z,3.30
2019-03-05T23:32:39.054Z,3.00
2019-03-05T23:37:59.950Z,2.98
2019-03-05T23:40:27.857Z,2.55
2019-03-05T23:42:55.709Z,2.75
2019-03-05T23:45:23.585Z,2.72
2019-03-05T23:47:51.421Z,2.75
2019-03-05T23:50:19.286Z,2.70
2019-03-05T23:52:47.163Z,2.98
2019-03-05T23:55:15.262Z,3.10
2019-03-05T23:57:43.965Z,2.55
